createdAt,value
2023-05-07T00:01:46.928Z,100.00
2023-05-07T00:04:14.561Z,100.00
2023-05-07T00:06:41.570Z,100.00
2023-05-07T00:09:08.570Z,100.00
2023-05-07T00:11:37.218Z,100.00
2023-05-07T00:14:04.277Z,100.00
2023-05-07T00:16:31.381Z,100.00
2023-05-07T00:18:58.489Z,100.00
2023-05-07T00:21:27.587Z,100.00
2023-05-07T00:23:55.259Z,100.00
2023-05-07T00:26:22.332Z,100.00
2023-05-07T00:28:49.114Z,100.00
2023-05-07T00:31:15.944Z,100.00
2023-05-07T00:33:42.753Z,100.00
2023-05-07T00:36:09.655Z,100.00
2023-05-07T00:38:36.472Z,100.00
2023-05-07T00:41:03.478Z,100.00
2023-05-07T00:43:30.547Z,100.00
2023-05-07T00:45:57.520Z,100.00
2023-05-07T00:48:25.399Z,100.00
2023-05-07T00:50:52.407Z,100.00
2023-05-07T00:53:19.195Z,100.00
2023-05-07T00:55:46.117Z,100.00
2023-05-07T00:58:13.019Z,100.00
2023-05-07T01:00:39.927Z,100.00
2023-05-07T01:03:06.749Z,100.00
2023-05-07T01:05:34.465Z,100.00
2023-05-07T01:08:03.180Z,100.00
2023-05-07T01:10:31.600Z,100.00
2023-05-07T01:13:01.373Z,100.00
2023-05-07T01:15:28.701Z,100.00
2023-05-07T01:17:57.987Z,100.00
2023-05-07T01:20:26.099Z,100.00
2023-05-07T01:22:53.390Z,100.00
2023-05-07T01:25:20.551Z,100.00
2023-05-07T01:27:47.568Z,100.00
2023-05-07T01:30:14.654Z,100.00
2023-05-07T01:32:49.629Z,100.00
2023-05-07T01:35:21.676Z,100.00
2023-05-07T01:37:49.249Z,100.00
2023-05-07T01:40:16.300Z,100.00
2023-05-07T01:42:44.554Z,100.00
2023-05-07T01:45:12.307Z,100.00
2023-05-07T01:47:40.421Z,100.00
2023-05-07T01:50:09.529Z,100.00
2023-05-07T01:52:40.128Z,100.00
2023-05-07T01:55:08.044Z,100.00
2023-05-07T01:57:35.148Z,100.00
2023-05-07T02:00:02.077Z,100.00
2023-05-07T02:02:28.960Z,100.00
2023-05-07T02:04:56.251Z,100.00
2023-05-07T02:07:23.034Z,100.00
2023-05-07T02:09:49.867Z,100.00
2023-05-07T02:12:16.662Z,100.00
2023-05-07T02:14:43.597Z,100.00
2023-05-07T02:17:10.514Z,100.00
2023-05-07T02:19:37.315Z,100.00
2023-05-07T02:22:04.101Z,100.00
2023-05-07T02:24:31.171Z,100.00
2023-05-07T02:26:57.970Z,100.00
2023-05-07T02:29:24.771Z,100.00
2023-05-07T02:31:53.886Z,100.00
2023-05-07T02:34:20.788Z,100.00
2023-05-07T02:36:47.723Z,100.00
2023-05-07T02:39:16.453Z,100.00
2023-05-07T02:41:43.342Z,100.00
2023-05-07T02:44:10.306Z,100.00
2023-05-07T02:46:37.141Z,100.00
2023-05-07T02:49:04.039Z,100.00
2023-05-07T02:51:31.764Z,100.00
2023-05-07T02:53:58.584Z,100.00
2023-05-07T02:56:28.047Z,100.00
2023-05-07T02:58:54.857Z,100.00
2023-05-07T03:01:21.897Z,100.00
2023-05-07T03:03:48.926Z,100.00
2023-05-07T03:06:16.406Z,100.00
2023-05-07T03:08:44.058Z,100.00
2023-05-07T03:11:11.106Z,100.00
2023-05-07T03:13:37.911Z,100.00
2023-05-07T03:16:04.900Z,100.00
2023-05-07T03:18:31.708Z,100.00
2023-05-07T03:20:58.596Z,100.00
2023-05-07T03:23:25.499Z,100.00
2023-05-07T03:25:52.284Z,100.00
2023-05-07T03:28:19.080Z,100.00
2023-05-07T03:30:45.933Z,100.00
2023-05-07T03:33:12.748Z,100.00
2023-05-07T03:35:39.548Z,100.00
2023-05-07T03:38:06.439Z,100.00
2023-05-07T03:40:33.380Z,100.00
2023-05-07T03:43:01.780Z,100.00
2023-05-07T03:45:28.606Z,100.00
2023-05-07T03:47:55.510Z,100.00
2023-05-07T03:50:22.472Z,100.00
2023-05-07T03:52:49.297Z,100.00
2023-05-07T03:55:16.077Z,100.00
2023-05-07T03:57:42.957Z,100.00
2023-05-07T04:00:10.772Z,100.00
2023-05-07T04:02:37.883Z,100.00
2023-05-07T04:05:05.161Z,100.00
2023-05-07T04:07:31.975Z,100.00
2023-05-07T04:09:58.812Z,100.00
2023-05-07T04:12:25.629Z,100.00
2023-05-07T04:14:52.534Z,100.00
2023-05-07T04:17:19.345Z,100.00
2023-05-07T04:19:46.609Z,100.00
2023-05-07T04:22:13.791Z,100.00
2023-05-07T04:24:40.647Z,100.00
2023-05-07T04:27:07.417Z,100.00
2023-05-07T04:29:34.298Z,100.00
2023-05-07T04:32:01.307Z,100.00
2023-05-07T04:34:28.191Z,100.00
2023-05-07T04:36:55.022Z,100.00
2023-05-07T04:39:21.851Z,100.00
2023-05-07T04:41:48.640Z,100.00
2023-05-07T04:44:15.646Z,100.00
2023-05-07T04:46:42.480Z,100.00
2023-05-07T04:49:09.292Z,100.00
2023-05-07T04:51:36.065Z,100.00
2023-05-07T04:54:02.827Z,100.00
2023-05-07T04:56:30.977Z,100.00
2023-05-07T04:58:57.802Z,100.00
2023-05-07T05:01:24.677Z,100.00
2023-05-07T05:03:51.626Z,100.00
2023-05-07T05:06:18.448Z,100.00
2023-05-07T05:08:45.326Z,100.00
2023-05-07T05:11:12.335Z,100.00
2023-05-07T05:13:39.214Z,100.00
2023-05-07T05:16:06.993Z,100.00
2023-05-07T05:18:34.343Z,100.00
2023-05-07T05:21:01.149Z,100.00
2023-05-07T05:23:28.319Z,100.00
2023-05-07T05:25:58.956Z,100.00
2023-05-07T05:28:26.033Z,100.00
2023-05-07T05:30:52.992Z,100.00
2023-05-07T05:33:19.810Z,100.00
2023-05-07T05:35:46.598Z,100.00
2023-05-07T05:38:13.462Z,100.00
2023-05-07T05:40:40.281Z,100.00
2023-05-07T05:43:07.351Z,100.00
2023-05-07T05:45:34.156Z,100.00
2023-05-07T05:48:01.420Z,100.00
2023-05-07T05:50:28.267Z,100.00
2023-05-07T05:52:55.125Z,100.00
2023-05-07T05:55:22.838Z,100.00
2023-05-07T05:57:49.724Z,100.00
2023-05-07T06:00:17.485Z,100.00
2023-05-07T06:02:44.452Z,100.00
2023-05-07T06:05:11.442Z,100.00
2023-05-07T06:07:38.249Z,100.00
2023-05-07T06:10:05.968Z,100.00
2023-05-07T06:12:32.974Z,100.00
2023-05-07T06:14:59.875Z,100.00
2023-05-07T06:17:26.726Z,100.00
2023-05-07T06:19:53.645Z,100.00
2023-05-07T06:22:20.692Z,100.00
2023-05-07T06:24:47.620Z,100.00
2023-05-07T06:27:14.459Z,100.00
2023-05-07T06:29:41.294Z,100.00
2023-05-07T06:32:10.127Z,100.00
2023-05-07T06:34:38.040Z,100.00
2023-05-07T06:37:04.937Z,100.00
2023-05-07T06:39:32.021Z,100.00
2023-05-07T06:41:58.975Z,100.00
2023-05-07T06:44:26.105Z,100.00
2023-05-07T06:46:52.915Z,100.00
2023-05-07T06:49:19.771Z,100.00
2023-05-07T06:51:46.634Z,100.00
2023-05-07T06:54:13.538Z,100.00
2023-05-07T06:56:40.583Z,100.00
2023-05-07T06:59:07.740Z,100.00
2023-05-07T07:01:34.616Z,100.00
2023-05-07T07:04:01.613Z,100.00
2023-05-07T07:06:28.417Z,100.00
2023-05-07T07:08:55.318Z,100.00
2023-05-07T07:11:22.111Z,100.00
2023-05-07T07:13:48.921Z,100.00
2023-05-07T07:16:15.842Z,100.00
2023-05-07T07:18:42.690Z,100.00
2023-05-07T07:21:09.551Z,100.00
2023-05-07T07:23:36.343Z,100.00
2023-05-07T07:26:03.210Z,100.00
2023-05-07T07:28:30.228Z,100.00
2023-05-07T07:30:57.018Z,100.00
2023-05-07T07:33:23.822Z,100.00
2023-05-07T07:35:50.712Z,100.00
2023-05-07T07:38:17.493Z,100.00
2023-05-07T07:40:45.080Z,100.00
2023-05-07T07:43:11.863Z,100.00
2023-05-07T07:45:41.036Z,100.00
2023-05-07T07:48:08.088Z,100.00
2023-05-07T07:50:44.615Z,100.00
2023-05-07T07:53:12.776Z,100.00
2023-05-07T07:55:41.161Z,100.00
2023-05-07T07:58:08.059Z,100.00
2023-05-07T08:00:34.868Z,100.00
2023-05-07T08:03:02.277Z,100.00
2023-05-07T08:05:29.234Z,100.00
2023-05-07T08:07:56.034Z,100.00
2023-05-07T08:10:23.247Z,100.00
2023-05-07T08:12:51.082Z,100.00
2023-05-07T08:15:18.340Z,100.00
2023-05-07T08:17:45.299Z,100.00
2023-05-07T08:20:12.387Z,100.00
2023-05-07T08:22:39.385Z,100.00
2023-05-07T08:25:06.555Z,100.00
2023-05-07T08:27:33.323Z,100.00
2023-05-07T08:30:00.199Z,100.00
2023-05-07T08:32:27.121Z,100.00
2023-05-07T08:34:54.030Z,100.00
2023-05-07T08:37:20.985Z,100.00
2023-05-07T08:39:47.892Z,100.00
2023-05-07T08:42:18.669Z,100.00
2023-05-07T08:44:49.644Z,100.00
2023-05-07T08:47:17.403Z,100.00
2023-05-07T08:49:44.508Z,100.00
2023-05-07T08:52:13.516Z,100.00
2023-05-07T08:54:40.429Z,100.00
2023-05-07T08:57:07.330Z,100.00
2023-05-07T08:59:34.137Z,100.00
2023-05-07T09:02:01.206Z,100.00
2023-05-07T09:04:28.784Z,100.00
2023-05-07T09:06:56.235Z,100.00
2023-05-07T09:09:23.586Z,100.00
2023-05-07T09:11:57.895Z,100.00
2023-05-07T09:14:25.460Z,100.00
2023-05-07T09:16:54.295Z,100.00
2023-05-07T09:19:28.484Z,100.00
2023-05-07T09:22:03.575Z,100.00
2023-05-07T09:24:35.717Z,100.00
2023-05-07T09:27:03.348Z,100.00
2023-05-07T09:29:31.211Z,100.00
2023-05-07T09:31:58.193Z,100.00
2023-05-07T09:34:25.255Z,100.00
2023-05-07T09:36:52.343Z,100.00
2023-05-07T09:39:19.212Z,100.00
2023-05-07T09:41:50.469Z,100.00
2023-05-07T09:44:17.580Z,100.00
2023-05-07T09:46:46.151Z,95.76
2023-05-07T09:49:24.811Z,94.30
2023-05-07T09:51:53.617Z,95.36
2023-05-07T09:54:20.746Z,86.76
2023-05-07T09:56:50.149Z,87.23
2023-05-07T09:59:17.876Z,86.55
2023-05-07T10:01:45.850Z,85.48
2023-05-07T10:04:13.726Z,87.68
2023-05-07T10:06:41.755Z,87.62
2023-05-07T10:09:09.021Z,87.88
2023-05-07T10:11:38.426Z,85.77
2023-05-07T10:14:08.902Z,84.77
2023-05-07T10:16:38.113Z,82.03
2023-05-07T10:19:10.818Z,82.91
2023-05-07T10:21:39.101Z,84.01
2023-05-07T10:24:28.341Z,84.34
2023-05-07T10:26:57.278Z,84.96
2023-05-07T10:29:50.036Z,83.30
2023-05-07T10:32:42.360Z,84.02
2023-05-07T10:35:23.094Z,82.61
2023-05-07T10:37:50.602Z,78.61
2023-05-07T10:40:18.749Z,79.67
2023-05-07T10:42:56.992Z,76.89
2023-05-07T10:45:24.581Z,76.79
2023-05-07T10:48:28.632Z,78.05
2023-05-07T10:51:21.775Z,74.14
2023-05-07T10:53:48.600Z,77.50
2023-05-07T10:56:18.276Z,76.19
2023-05-07T10:58:45.236Z,77.04
2023-05-07T11:01:14.142Z,78.50
2023-05-07T11:04:25.220Z,78.11
2023-05-07T11:07:10.216Z,68.12
2023-05-07T11:10:02.564Z,70.40
2023-05-07T11:12:38.911Z,72.62
2023-05-07T11:15:07.492Z,72.98
2023-05-07T11:17:37.414Z,72.70
2023-05-07T11:20:08.026Z,67.11
2023-05-07T11:22:36.607Z,60.41
2023-05-07T11:25:04.862Z,57.23
2023-05-07T11:27:31.857Z,58.93
2023-05-07T11:29:59.231Z,58.06
2023-05-07T11:32:31.986Z,49.60
2023-05-07T11:35:01.402Z,48.45
2023-05-07T11:37:31.158Z,47.17
2023-05-07T11:40:15.125Z,51.37
2023-05-07T11:42:46.114Z,52.13
2023-05-07T11:45:13.348Z,46.84
2023-05-07T11:47:43.148Z,51.25
2023-05-07T11:50:12.179Z,49.18
2023-05-07T11:52:40.515Z,50.06
2023-05-07T11:55:09.109Z,44.00
2023-05-07T11:57:36.311Z,47.08
2023-05-07T12:00:05.649Z,47.12
2023-05-07T12:02:33.671Z,49.99
2023-05-07T12:05:02.063Z,48.76
2023-05-07T12:07:29.029Z,53.92
2023-05-07T12:09:56.305Z,58.22
2023-05-07T12:12:23.180Z,59.79
2023-05-07T12:14:50.579Z,60.04
2023-05-07T12:17:20.726Z,61.28
2023-05-07T12:19:50.534Z,61.75
2023-05-07T12:22:20.297Z,62.59
2023-05-07T12:24:58.509Z,63.39
2023-05-07T12:27:26.885Z,62.30
2023-05-07T12:29:55.711Z,62.85
2023-05-07T12:32:23.147Z,56.70
2023-05-07T12:34:54.828Z,57.15
2023-05-07T12:37:31.049Z,60.83
2023-05-07T12:40:12.270Z,60.39
2023-05-07T12:42:41.519Z,61.73
2023-05-07T12:45:21.057Z,61.72
2023-05-07T12:47:48.809Z,61.83
2023-05-07T12:50:17.056Z,62.46
2023-05-07T12:52:49.120Z,63.34
2023-05-07T12:55:17.294Z,66.38
2023-05-07T12:57:54.109Z,68.69
2023-05-07T13:00:38.515Z,77.95
2023-05-07T13:03:06.110Z,83.09
2023-05-07T13:05:33.730Z,91.80
2023-05-07T13:08:00.587Z,90.52
2023-05-07T13:10:28.695Z,99.03
2023-05-07T13:12:55.797Z,100.00
2023-05-07T13:15:23.012Z,100.00
2023-05-07T13:17:49.856Z,100.00
2023-05-07T13:20:16.764Z,100.00
2023-05-07T13:22:43.695Z,100.00
2023-05-07T13:25:10.929Z,100.00
2023-05-07T13:27:38.111Z,100.00
2023-05-07T13:30:06.565Z,100.00
2023-05-07T13:32:33.580Z,100.00
2023-05-07T13:35:00.455Z,100.00
2023-05-07T13:37:27.305Z,100.00
2023-05-07T13:39:54.092Z,100.00
2023-05-07T13:42:21.002Z,100.00
2023-05-07T13:44:47.830Z,100.00
2023-05-07T13:47:14.690Z,100.00
2023-05-07T13:49:41.529Z,100.00
2023-05-07T13:52:08.347Z,100.00
2023-05-07T13:54:35.135Z,100.00
2023-05-07T13:57:02.702Z,100.00
2023-05-07T13:59:29.546Z,100.00
2023-05-07T14:01:56.388Z,100.00
2023-05-07T14:04:23.241Z,100.00
2023-05-07T14:06:50.110Z,100.00
2023-05-07T14:09:16.972Z,100.00
2023-05-07T14:11:43.807Z,100.00
2023-05-07T14:14:13.443Z,100.00
2023-05-07T14:16:40.408Z,100.00
2023-05-07T14:19:07.281Z,100.00
2023-05-07T14:21:34.066Z,100.00
2023-05-07T14:24:01.104Z,100.00
2023-05-07T14:26:28.139Z,100.00
2023-05-07T14:28:56.241Z,100.00
2023-05-07T14:31:23.282Z,100.00
2023-05-07T14:33:51.465Z,100.00
2023-05-07T14:36:20.968Z,100.00
2023-05-07T14:38:48.272Z,100.00
2023-05-07T14:41:15.868Z,100.00
2023-05-07T14:43:42.731Z,100.00
2023-05-07T14:46:09.640Z,100.00
2023-05-07T14:48:36.488Z,100.00
2023-05-07T14:51:03.297Z,100.00
2023-05-07T14:53:30.293Z,100.00
2023-05-07T14:55:57.362Z,100.00
2023-05-07T14:58:24.182Z,100.00
2023-05-07T15:00:51.020Z,100.00
2023-05-07T15:03:18.252Z,100.00
2023-05-07T15:05:45.097Z,100.00
2023-05-07T15:08:11.928Z,100.00
2023-05-07T15:10:42.157Z,100.00
2023-05-07T15:13:14.450Z,100.00
2023-05-07T15:15:43.718Z,100.00
2023-05-07T15:18:10.554Z,100.00
2023-05-07T15:20:38.026Z,100.00
2023-05-07T15:23:06.695Z,100.00
2023-05-07T15:25:35.143Z,100.00
2023-05-07T15:28:02.053Z,100.00
2023-05-07T15:30:29.061Z,100.00
2023-05-07T15:32:56.637Z,100.00
2023-05-07T15:35:23.597Z,100.00
2023-05-07T15:37:50.874Z,100.00
2023-05-07T15:40:17.967Z,100.00
2023-05-07T15:42:46.151Z,100.00
2023-05-07T15:45:13.622Z,100.00
2023-05-07T15:47:40.818Z,100.00
2023-05-07T15:50:08.294Z,100.00
2023-05-07T15:52:35.308Z,100.00
2023-05-07T15:55:03.478Z,100.00
2023-05-07T15:57:30.486Z,100.00
2023-05-07T15:59:57.703Z,100.00
2023-05-07T16:02:24.754Z,100.00
2023-05-07T16:04:52.095Z,100.00
2023-05-07T16:07:19.781Z,100.00
2023-05-07T16:09:47.373Z,100.00
2023-05-07T16:12:14.253Z,100.00
2023-05-07T16:14:41.105Z,100.00
2023-05-07T16:17:08.396Z,100.00
2023-05-07T16:19:35.345Z,100.00
2023-05-07T16:22:02.148Z,100.00
2023-05-07T16:24:28.932Z,100.00
2023-05-07T16:26:55.978Z,100.00
2023-05-07T16:29:23.267Z,100.00
2023-05-07T16:31:50.719Z,100.00
2023-05-07T16:34:17.564Z,100.00
2023-05-07T16:36:44.461Z,100.00
2023-05-07T16:39:11.258Z,100.00
2023-05-07T16:41:38.480Z,100.00
2023-05-07T16:44:05.452Z,100.00
2023-05-07T16:46:32.352Z,100.00
2023-05-07T16:48:59.291Z,100.00
2023-05-07T16:51:26.191Z,100.00
2023-05-07T16:53:53.093Z,100.00
2023-05-07T16:56:19.997Z,100.00
2023-05-07T16:58:46.776Z,100.00
2023-05-07T17:01:15.199Z,100.00
2023-05-07T17:03:42.202Z,100.00
2023-05-07T17:06:15.033Z,100.00
2023-05-07T17:08:43.149Z,100.00
2023-05-07T17:11:10.592Z,100.00
2023-05-07T17:13:37.594Z,100.00
2023-05-07T17:16:04.844Z,100.00
2023-05-07T17:18:31.682Z,100.00
2023-05-07T17:20:59.190Z,100.00
2023-05-07T17:23:25.991Z,100.00
2023-05-07T17:25:52.804Z,100.00
2023-05-07T17:28:19.683Z,100.00
2023-05-07T17:30:48.060Z,100.00
2023-05-07T17:33:21.544Z,100.00
2023-05-07T17:35:49.872Z,100.00
2023-05-07T17:38:16.789Z,100.00
2023-05-07T17:40:43.689Z,100.00
2023-05-07T17:43:10.513Z,100.00
2023-05-07T17:45:37.427Z,100.00
2023-05-07T17:48:05.611Z,100.00
2023-05-07T17:50:32.525Z,100.00
2023-05-07T17:52:59.481Z,100.00
2023-05-07T17:55:26.483Z,100.00
2023-05-07T17:57:53.330Z,100.00
2023-05-07T18:00:20.378Z,100.00
2023-05-07T18:02:47.348Z,100.00
2023-05-07T18:05:14.309Z,100.00
2023-05-07T18:07:41.158Z,100.00
2023-05-07T18:10:08.507Z,100.00
2023-05-07T18:12:35.849Z,100.00
2023-05-07T18:15:02.810Z,100.00
2023-05-07T18:17:29.674Z,100.00
2023-05-07T18:19:56.517Z,100.00
2023-05-07T18:22:23.408Z,100.00
2023-05-07T18:24:50.809Z,100.00
2023-05-07T18:27:18.284Z,100.00
2023-05-07T18:29:45.101Z,100.00
2023-05-07T18:32:12.015Z,100.00
2023-05-07T18:34:39.117Z,100.00
2023-05-07T18:37:05.986Z,100.00
2023-05-07T18:39:32.818Z,100.00
2023-05-07T18:42:00.312Z,100.00
2023-05-07T18:44:27.160Z,100.00
2023-05-07T18:46:53.956Z,100.00
2023-05-07T18:49:20.815Z,100.00
2023-05-07T18:51:48.263Z,100.00
2023-05-07T18:54:15.272Z,100.00
2023-05-07T18:56:42.702Z,100.00
2023-05-07T18:59:09.819Z,100.00
2023-05-07T19:01:36.640Z,100.00
2023-05-07T19:04:03.517Z,100.00
2023-05-07T19:06:33.273Z,100.00
2023-05-07T19:09:00.670Z,100.00
2023-05-07T19:11:27.638Z,100.00
2023-05-07T19:13:54.472Z,100.00
2023-05-07T19:16:21.288Z,100.00
2023-05-07T19:18:48.498Z,100.00
2023-05-07T19:21:15.342Z,100.00
2023-05-07T19:23:42.154Z,100.00
2023-05-07T19:26:10.347Z,100.00
2023-05-07T19:28:45.512Z,100.00
2023-05-07T19:31:23.272Z,100.00
2023-05-07T19:33:50.129Z,100.00
2023-05-07T19:36:17.384Z,100.00
2023-05-07T19:38:45.802Z,100.00
2023-05-07T19:41:13.016Z,100.00
2023-05-07T19:43:40.079Z,100.00
2023-05-07T19:46:06.927Z,100.00
2023-05-07T19:48:34.025Z,100.00
2023-05-07T19:51:01.031Z,100.00
2023-05-07T19:53:30.098Z,100.00
2023-05-07T19:56:08.465Z,100.00
2023-05-07T19:58:36.315Z,100.00
2023-05-07T20:01:04.330Z,100.00
2023-05-07T20:03:33.023Z,100.00
2023-05-07T20:06:00.420Z,100.00
2023-05-07T20:08:28.532Z,100.00
2023-05-07T20:10:58.884Z,100.00
2023-05-07T20:13:27.298Z,100.00
2023-05-07T20:16:01.462Z,100.00
2023-05-07T20:18:29.308Z,100.00
2023-05-07T20:20:56.477Z,100.00
2023-05-07T20:23:23.658Z,100.00
2023-05-07T20:25:50.714Z,100.00
2023-05-07T20:28:18.737Z,100.00
2023-05-07T20:30:45.695Z,100.00
2023-05-07T20:33:13.277Z,100.00
2023-05-07T20:35:40.761Z,100.00
2023-05-07T20:38:07.740Z,100.00
2023-05-07T20:40:37.202Z,100.00
2023-05-07T20:43:06.137Z,100.00
2023-05-07T20:45:33.293Z,100.00
2023-05-07T20:48:00.904Z,100.00
2023-05-07T20:50:27.887Z,100.00
2023-05-07T20:52:54.729Z,100.00
2023-05-07T20:55:21.921Z,100.00
2023-05-07T20:57:48.760Z,100.00
2023-05-07T21:00:17.295Z,100.00
2023-05-07T21:02:45.117Z,100.00
2023-05-07T21:05:12.315Z,100.00
2023-05-07T21:07:39.147Z,100.00
2023-05-07T21:10:06.632Z,100.00
2023-05-07T21:12:33.544Z,100.00
2023-05-07T21:15:00.368Z,100.00
2023-05-07T21:17:29.045Z,100.00
2023-05-07T21:19:55.969Z,100.00
2023-05-07T21:22:22.774Z,100.00
2023-05-07T21:24:49.621Z,100.00
2023-05-07T21:27:16.509Z,100.00
2023-05-07T21:29:43.370Z,100.00
2023-05-07T21:32:10.247Z,100.00
2023-05-07T21:34:37.206Z,100.00
2023-05-07T21:37:04.525Z,100.00
2023-05-07T21:39:31.363Z,100.00
2023-05-07T21:41:58.212Z,100.00
2023-05-07T21:44:29.919Z,100.00
2023-05-07T21:46:56.903Z,100.00
2023-05-07T21:49:23.803Z,100.00
2023-05-07T21:51:50.700Z,100.00
2023-05-07T21:54:17.742Z,100.00
2023-05-07T21:56:45.419Z,100.00
2023-05-07T21:59:12.314Z,100.00
2023-05-07T22:01:39.260Z,100.00
2023-05-07T22:04:06.263Z,100.00
2023-05-07T22:06:33.262Z,100.00
2023-05-07T22:09:00.055Z,100.00
2023-05-07T22:11:26.910Z,100.00
2023-05-07T22:13:53.745Z,100.00
2023-05-07T22:16:20.646Z,100.00
2023-05-07T22:18:49.456Z,100.00
2023-05-07T22:21:16.468Z,100.00
2023-05-07T22:23:43.357Z,100.00
2023-05-07T22:26:12.144Z,100.00
2023-05-07T22:28:39.152Z,100.00
2023-05-07T22:31:06.488Z,100.00
2023-05-07T22:33:33.477Z,100.00
2023-05-07T22:36:00.264Z,100.00
2023-05-07T22:38:27.174Z,100.00
2023-05-07T22:40:54.561Z,100.00
2023-05-07T22:43:21.332Z,100.00
2023-05-07T22:45:48.260Z,100.00
2023-05-07T22:48:15.241Z,100.00
2023-05-07T22:50:42.064Z,100.00
2023-05-07T22:53:08.869Z,100.00
2023-05-07T22:55:35.699Z,100.00
2023-05-07T22:58:02.655Z,100.00
2023-05-07T23:00:29.446Z,100.00
2023-05-07T23:02:56.467Z,100.00
2023-05-07T23:05:23.412Z,100.00
2023-05-07T23:07:50.306Z,100.00
2023-05-07T23:10:17.204Z,100.00
2023-05-07T23:12:48.966Z,100.00
2023-05-07T23:15:22.228Z,100.00
2023-05-07T23:17:49.055Z,100.00
2023-05-07T23:20:15.887Z,100.00
2023-05-07T23:22:42.886Z,100.00
2023-05-07T23:25:09.937Z,100.00
2023-05-07T23:27:36.796Z,100.00
2023-05-07T23:30:04.008Z,100.00
2023-05-07T23:32:33.968Z,100.00
2023-05-07T23:35:00.901Z,100.00
2023-05-07T23:37:27.720Z,100.00
2023-05-07T23:39:55.239Z,100.00
2023-05-07T23:42:22.138Z,100.00
2023-05-07T23:44:48.972Z,100.00
2023-05-07T23:47:15.879Z,100.00
2023-05-07T23:49:42.689Z,100.00
2023-05-07T23:52:09.513Z,100.00
2023-05-07T23:54:36.444Z,100.00
2023-05-07T23:57:04.509Z,100.00
2023-05-07T23:59:31.448Z,100.00
